sensor_id;sensor_type;location;lat;lon;timestamp;temperature;humidity
4755;DHT22;2391;47.212;7.542;2023-09-18T00:00:03;22.90;91.30
4755;DHT22;2391;47.212;7.542;2023-09-18T00:02:30;22.80;91.40
4755;DHT22;2391;47.212;7.542;2023-09-18T00:04:57;22.80;91.30
4755;DHT22;2391;47.212;7.542;2023-09-18T00:07:22;22.70;91.30
4755;DHT22;2391;47.212;7.542;2023-09-18T00:09:48;22.70;91.50
4755;DHT22;2391;47.212;7.542;2023-09-18T00:12:14;22.70;91.50
4755;DHT22;2391;47.212;7.542;2023-09-18T00:14:40;22.60;91.70
4755;DHT22;2391;47.212;7.542;2023-09-18T00:17:07;22.60;91.90
4755;DHT22;2391;47.212;7.542;2023-09-18T00:19:32;22.50;91.90
4755;DHT22;2391;47.212;7.542;2023-09-18T00:22:02;22.40;92.30
4755;DHT22;2391;47.212;7.542;2023-09-18T00:24:27;22.30;92.40
4755;DHT22;2391;47.212;7.542;2023-09-18T00:26:53;22.40;92.30
4755;DHT22;2391;47.212;7.542;2023-09-18T00:29:19;22.40;92.50
4755;DHT22;2391;47.212;7.542;2023-09-18T00:31:45;22.30;92.70
4755;DHT22;2391;47.212;7.542;2023-09-18T00:34:11;22.30;92.70
4755;DHT22;2391;47.212;7.542;2023-09-18T00:36:37;22.40;92.50
4755;DHT22;2391;47.212;7.542;2023-09-18T00:39:03;22.50;92.50
4755;DHT22;2391;47.212;7.542;2023-09-18T00:41:29;22.50;92.40
4755;DHT22;2391;47.212;7.542;2023-09-18T00:43:55;22.60;92.40
4755;DHT22;2391;47.212;7.542;2023-09-18T00:46:21;22.60;92.20
4755;DHT22;2391;47.212;7.542;2023-09-18T00:48:48;22.70;92.10
4755;DHT22;2391;47.212;7.542;2023-09-18T00:51:14;22.80;92.00
4755;DHT22;2391;47.212;7.542;2023-09-18T00:53:44;22.70;92.00
4755;DHT22;2391;47.212;7.542;2023-09-18T00:56:10;22.80;92.10
4755;DHT22;2391;47.212;7.542;2023-09-18T00:58:36;22.80;92.00
4755;DHT22;2391;47.212;7.542;2023-09-18T01:01:03;22.80;91.90
4755;DHT22;2391;47.212;7.542;2023-09-18T01:03:29;22.90;91.90
4755;DHT22;2391;47.212;7.542;2023-09-18T01:05:55;22.90;91.90
4755;DHT22;2391;47.212;7.542;2023-09-18T01:08:23;22.90;91.80
4755;DHT22;2391;47.212;7.542;2023-09-18T01:16:35;23.00;91.70
4755;DHT22;2391;47.212;7.542;2023-09-18T01:19:00;23.00;91.70
4755;DHT22;2391;47.212;7.542;2023-09-18T01:21:27;23.00;91.80
4755;DHT22;2391;47.212;7.542;2023-09-18T01:23:53;23.00;91.80
4755;DHT22;2391;47.212;7.542;2023-09-18T01:26:19;23.00;91.80
4755;DHT22;2391;47.212;7.542;2023-09-18T01:28:44;23.00;91.70
4755;DHT22;2391;47.212;7.542;2023-09-18T01:31:10;23.00;91.60
4755;DHT22;2391;47.212;7.542;2023-09-18T01:33:37;23.00;91.60
4755;DHT22;2391;47.212;7.542;2023-09-18T01:36:06;23.00;91.70
4755;DHT22;2391;47.212;7.542;2023-09-18T01:38:33;23.00;91.80
4755;DHT22;2391;47.212;7.542;2023-09-18T01:41:00;22.90;91.80
4755;DHT22;2391;47.212;7.542;2023-09-18T01:43:26;22.90;91.90
4755;DHT22;2391;47.212;7.542;2023-09-18T01:45:52;22.80;91.80
4755;DHT22;2391;47.212;7.542;2023-09-18T01:48:18;22.70;91.90
4755;DHT22;2391;47.212;7.542;2023-09-18T01:50:44;22.60;92.20
4755;DHT22;2391;47.212;7.542;2023-09-18T01:53:10;22.50;92.30
4755;DHT22;2391;47.212;7.542;2023-09-18T01:55:36;22.40;92.30
4755;DHT22;2391;47.212;7.542;2023-09-18T01:58:02;22.50;92.40
4755;DHT22;2391;47.212;7.542;2023-09-18T02:00:28;22.40;92.60
4755;DHT22;2391;47.212;7.542;2023-09-18T02:02:54;22.30;92.90
4755;DHT22;2391;47.212;7.542;2023-09-18T02:05:19;22.30;92.80
4755;DHT22;2391;47.212;7.542;2023-09-18T02:07:45;22.30;92.90
4755;DHT22;2391;47.212;7.542;2023-09-18T02:10:11;22.30;93.00
4755;DHT22;2391;47.212;7.542;2023-09-18T02:12:38;22.20;93.10
4755;DHT22;2391;47.212;7.542;2023-09-18T02:15:06;22.20;93.20
4755;DHT22;2391;47.212;7.542;2023-09-18T02:17:32;22.30;93.30
4755;DHT22;2391;47.212;7.542;2023-09-18T02:19:58;22.40;93.30
4755;DHT22;2391;47.212;7.542;2023-09-18T02:22:26;22.30;93.40
4755;DHT22;2391;47.212;7.542;2023-09-18T02:24:51;22.40;93.40
4755;DHT22;2391;47.212;7.542;2023-09-18T02:27:17;22.40;93.30
4755;DHT22;2391;47.212;7.542;2023-09-18T02:29:44;22.50;93.30
4755;DHT22;2391;47.212;7.542;2023-09-18T02:32:10;22.50;93.20
4755;DHT22;2391;47.212;7.542;2023-09-18T02:34:36;22.60;93.00
4755;DHT22;2391;47.212;7.542;2023-09-18T02:37:01;22.60;93.00
4755;DHT22;2391;47.212;7.542;2023-09-18T02:39:27;22.70;93.00
4755;DHT22;2391;47.212;7.542;2023-09-18T02:41:53;22.70;92.90
4755;DHT22;2391;47.212;7.542;2023-09-18T02:44:18;22.70;92.70
4755;DHT22;2391;47.212;7.542;2023-09-18T02:46:44;22.80;92.90
4755;DHT22;2391;47.212;7.542;2023-09-18T02:49:10;22.80;92.90
4755;DHT22;2391;47.212;7.542;2023-09-18T02:51:35;22.70;93.00
4755;DHT22;2391;47.212;7.542;2023-09-18T02:54:02;22.70;93.00
4755;DHT22;2391;47.212;7.542;2023-09-18T02:56:28;22.70;93.00
4755;DHT22;2391;47.212;7.542;2023-09-18T02:58:54;22.70;92.90
4755;DHT22;2391;47.212;7.542;2023-09-18T03:01:19;22.70;93.10
4755;DHT22;2391;47.212;7.542;2023-09-18T03:03:45;22.70;93.10
4755;DHT22;2391;47.212;7.542;2023-09-18T03:06:11;22.70;93.10
4755;DHT22;2391;47.212;7.542;2023-09-18T03:08:36;22.60;93.40
4755;DHT22;2391;47.212;7.542;2023-09-18T03:11:02;22.50;93.50
4755;DHT22;2391;47.212;7.542;2023-09-18T03:13:30;22.50;93.60
4755;DHT22;2391;47.212;7.542;2023-09-18T03:15:56;22.30;93.90
4755;DHT22;2391;47.212;7.542;2023-09-18T03:18:22;22.30;93.90
4755;DHT22;2391;47.212;7.542;2023-09-18T03:20:48;22.20;94.20
4755;DHT22;2391;47.212;7.542;2023-09-18T03:23:13;22.10;94.30
4755;DHT22;2391;47.212;7.542;2023-09-18T03:25:39;22.00;94.40
4755;DHT22;2391;47.212;7.542;2023-09-18T03:28:05;22.00;94.40
4755;DHT22;2391;47.212;7.542;2023-09-18T03:30:31;22.10;94.30
4755;DHT22;2391;47.212;7.542;2023-09-18T03:32:57;22.20;94.30
4755;DHT22;2391;47.212;7.542;2023-09-18T03:35:23;22.20;94.20
4755;DHT22;2391;47.212;7.542;2023-09-18T03:37:50;22.30;94.20
4755;DHT22;2391;47.212;7.542;2023-09-18T03:40:17;22.30;94.00
4755;DHT22;2391;47.212;7.542;2023-09-18T03:42:44;22.40;93.90
4755;DHT22;2391;47.212;7.542;2023-09-18T03:45:10;22.40;93.80
4755;DHT22;2391;47.212;7.542;2023-09-18T03:47:37;22.40;93.80
4755;DHT22;2391;47.212;7.542;2023-09-18T03:50:09;22.50;93.80
4755;DHT22;2391;47.212;7.542;2023-09-18T03:52:35;22.50;93.70
4755;DHT22;2391;47.212;7.542;2023-09-18T03:55:02;22.60;93.70
4755;DHT22;2391;47.212;7.542;2023-09-18T03:57:28;22.60;93.70
4755;DHT22;2391;47.212;7.542;2023-09-18T03:59:53;22.60;93.60
4755;DHT22;2391;47.212;7.542;2023-09-18T04:02:21;22.60;93.50
4755;DHT22;2391;47.212;7.542;2023-09-18T04:04:47;22.60;93.50
4755;DHT22;2391;47.212;7.542;2023-09-18T04:07:13;22.70;93.50
4755;DHT22;2391;47.212;7.542;2023-09-18T04:09:40;22.70;93.50
4755;DHT22;2391;47.212;7.542;2023-09-18T04:12:07;22.70;93.60
4755;DHT22;2391;47.212;7.542;2023-09-18T04:14:33;22.70;93.60
4755;DHT22;2391;47.212;7.542;2023-09-18T04:16:58;22.70;93.60
4755;DHT22;2391;47.212;7.542;2023-09-18T04:19:26;22.70;93.60
4755;DHT22;2391;47.212;7.542;2023-09-18T04:21:52;22.70;93.70
4755;DHT22;2391;47.212;7.542;2023-09-18T04:24:18;22.80;93.70
4755;DHT22;2391;47.212;7.542;2023-09-18T04:26:44;22.80;93.90
4755;DHT22;2391;47.212;7.542;2023-09-18T04:29:10;22.80;93.90
4755;DHT22;2391;47.212;7.542;2023-09-18T04:31:35;22.80;94.00
4755;DHT22;2391;47.212;7.542;2023-09-18T04:34:01;22.80;94.20
4755;DHT22;2391;47.212;7.542;2023-09-18T04:36:28;22.90;93.90
4755;DHT22;2391;47.212;7.542;2023-09-18T04:38:54;22.90;93.80
4755;DHT22;2391;47.212;7.542;2023-09-18T04:41:20;22.90;93.80
4755;DHT22;2391;47.212;7.542;2023-09-18T04:43:45;23.00;93.90
4755;DHT22;2391;47.212;7.542;2023-09-18T04:46:11;23.00;94.10
4755;DHT22;2391;47.212;7.542;2023-09-18T04:48:37;23.00;94.10
4755;DHT22;2391;47.212;7.542;2023-09-18T04:51:03;23.00;94.10
4755;DHT22;2391;47.212;7.542;2023-09-18T04:53:32;23.00;94.10
4755;DHT22;2391;47.212;7.542;2023-09-18T04:55:58;23.00;94.20
4755;DHT22;2391;47.212;7.542;2023-09-18T04:58:24;23.00;94.20
4755;DHT22;2391;47.212;7.542;2023-09-18T05:00:58;23.00;94.20
4755;DHT22;2391;47.212;7.542;2023-09-18T05:03:21;23.00;94.20
4755;DHT22;2391;47.212;7.542;2023-09-18T05:05:46;23.00;94.20
4755;DHT22;2391;47.212;7.542;2023-09-18T05:08:12;23.00;94.30
4755;DHT22;2391;47.212;7.542;2023-09-18T05:10:38;23.00;94.30
4755;DHT22;2391;47.212;7.542;2023-09-18T05:13:04;23.00;94.30
4755;DHT22;2391;47.212;7.542;2023-09-18T05:15:30;22.90;94.30
4755;DHT22;2391;47.212;7.542;2023-09-18T05:17:56;22.90;94.40
4755;DHT22;2391;47.212;7.542;2023-09-18T05:20:24;22.80;94.40
4755;DHT22;2391;47.212;7.542;2023-09-18T05:22:52;22.80;94.50
4755;DHT22;2391;47.212;7.542;2023-09-18T05:25:19;22.80;94.70
4755;DHT22;2391;47.212;7.542;2023-09-18T05:27:46;22.80;94.70
4755;DHT22;2391;47.212;7.542;2023-09-18T05:30:15;22.80;94.80
4755;DHT22;2391;47.212;7.542;2023-09-18T05:32:43;22.60;94.90
4755;DHT22;2391;47.212;7.542;2023-09-18T05:35:11;22.50;95.20
4755;DHT22;2391;47.212;7.542;2023-09-18T05:37:39;22.30;95.50
4755;DHT22;2391;47.212;7.542;2023-09-18T05:40:06;22.20;95.60
4755;DHT22;2391;47.212;7.542;2023-09-18T05:42:36;22.20;95.80
4755;DHT22;2391;47.212;7.542;2023-09-18T05:45:02;22.20;95.80
4755;DHT22;2391;47.212;7.542;2023-09-18T05:47:34;22.20;95.80
4755;DHT22;2391;47.212;7.542;2023-09-18T05:50:06;22.30;95.80
4755;DHT22;2391;47.212;7.542;2023-09-18T05:52:33;22.30;95.70
4755;DHT22;2391;47.212;7.542;2023-09-18T05:55:00;22.40;95.80
4755;DHT22;2391;47.212;7.542;2023-09-18T05:57:26;22.40;95.80
4755;DHT22;2391;47.212;7.542;2023-09-18T05:59:55;22.50;95.70
4755;DHT22;2391;47.212;7.542;2023-09-18T06:02:22;22.50;95.60
4755;DHT22;2391;47.212;7.542;2023-09-18T06:04:48;22.60;95.60
4755;DHT22;2391;47.212;7.542;2023-09-18T06:07:14;22.60;95.60
4755;DHT22;2391;47.212;7.542;2023-09-18T06:09:41;22.60;95.50
4755;DHT22;2391;47.212;7.542;2023-09-18T06:12:07;22.60;95.60
4755;DHT22;2391;47.212;7.542;2023-09-18T06:14:35;22.60;95.50
4755;DHT22;2391;47.212;7.542;2023-09-18T06:17:01;22.60;95.50
4755;DHT22;2391;47.212;7.542;2023-09-18T06:19:27;22.60;95.60
4755;DHT22;2391;47.212;7.542;2023-09-18T06:21:53;22.60;95.60
4755;DHT22;2391;47.212;7.542;2023-09-18T06:24:19;22.60;95.70
4755;DHT22;2391;47.212;7.542;2023-09-18T06:26:44;22.60;95.70
4755;DHT22;2391;47.212;7.542;2023-09-18T06:29:10;22.60;95.60
4755;DHT22;2391;47.212;7.542;2023-09-18T06:31:36;22.60;95.60
4755;DHT22;2391;47.212;7.542;2023-09-18T06:34:02;22.60;95.60
4755;DHT22;2391;47.212;7.542;2023-09-18T06:36:27;22.70;95.60
4755;DHT22;2391;47.212;7.542;2023-09-18T06:38:53;22.70;95.60
4755;DHT22;2391;47.212;7.542;2023-09-18T06:41:19;22.70;95.50
4755;DHT22;2391;47.212;7.542;2023-09-18T06:43:45;22.70;95.40
4755;DHT22;2391;47.212;7.542;2023-09-18T06:46:10;22.70;95.50
4755;DHT22;2391;47.212;7.542;2023-09-18T06:48:36;22.60;95.60
4755;DHT22;2391;47.212;7.542;2023-09-18T06:51:02;22.50;95.70
4755;DHT22;2391;47.212;7.542;2023-09-18T06:53:28;22.50;95.70
4755;DHT22;2391;47.212;7.542;2023-09-18T06:55:54;22.50;95.70
4755;DHT22;2391;47.212;7.542;2023-09-18T06:58:23;22.50;95.70
4755;DHT22;2391;47.212;7.542;2023-09-18T07:00:49;22.50;95.70
4755;DHT22;2391;47.212;7.542;2023-09-18T07:03:16;22.60;95.70
4755;DHT22;2391;47.212;7.542;2023-09-18T07:05:43;22.60;95.70
4755;DHT22;2391;47.212;7.542;2023-09-18T07:08:09;22.60;95.60
4755;DHT22;2391;47.212;7.542;2023-09-18T07:10:39;22.70;95.70
4755;DHT22;2391;47.212;7.542;2023-09-18T07:13:05;22.70;95.70
4755;DHT22;2391;47.212;7.542;2023-09-18T07:15:31;22.60;95.70
4755;DHT22;2391;47.212;7.542;2023-09-18T07:17:57;22.60;95.70
4755;DHT22;2391;47.212;7.542;2023-09-18T07:20:23;22.60;95.70
4755;DHT22;2391;47.212;7.542;2023-09-18T07:22:52;22.60;95.70
4755;DHT22;2391;47.212;7.542;2023-09-18T07:25:18;22.60;95.70
4755;DHT22;2391;47.212;7.542;2023-09-18T07:27:44;22.60;95.70
4755;DHT22;2391;47.212;7.542;2023-09-18T07:30:14;22.60;95.70
4755;DHT22;2391;47.212;7.542;2023-09-18T07:32:45;22.70;95.70
4755;DHT22;2391;47.212;7.542;2023-09-18T07:35:11;22.70;95.70
4755;DHT22;2391;47.212;7.542;2023-09-18T07:37:39;22.60;95.60
4755;DHT22;2391;47.212;7.542;2023-09-18T07:40:06;22.70;95.60
4755;DHT22;2391;47.212;7.542;2023-09-18T07:42:33;22.60;95.40
4755;DHT22;2391;47.212;7.542;2023-09-18T07:44:59;22.60;95.70
4755;DHT22;2391;47.212;7.542;2023-09-18T07:47:25;22.60;95.70
4755;DHT22;2391;47.212;7.542;2023-09-18T07:49:51;22.60;95.60
4755;DHT22;2391;47.212;7.542;2023-09-18T07:52:17;22.60;95.70
4755;DHT22;2391;47.212;7.542;2023-09-18T07:54:43;22.60;95.70
4755;DHT22;2391;47.212;7.542;2023-09-18T07:57:09;22.50;95.60
4755;DHT22;2391;47.212;7.542;2023-09-18T07:59:36;22.30;95.80
4755;DHT22;2391;47.212;7.542;2023-09-18T08:02:02;22.20;96.00
4755;DHT22;2391;47.212;7.542;2023-09-18T08:04:33;22.20;96.20
4755;DHT22;2391;47.212;7.542;2023-09-18T08:06:58;22.10;96.10
4755;DHT22;2391;47.212;7.542;2023-09-18T08:09:28;22.00;96.10
4755;DHT22;2391;47.212;7.542;2023-09-18T08:11:54;22.00;96.30
4755;DHT22;2391;47.212;7.542;2023-09-18T08:14:22;21.90;96.30
4755;DHT22;2391;47.212;7.542;2023-09-18T08:16:47;21.80;96.20
4755;DHT22;2391;47.212;7.542;2023-09-18T08:19:16;21.60;96.10
4755;DHT22;2391;47.212;7.542;2023-09-18T08:21:42;21.50;96.30
4755;DHT22;2391;47.212;7.542;2023-09-18T08:24:08;21.40;96.60
4755;DHT22;2391;47.212;7.542;2023-09-18T08:26:34;21.30;96.30
4755;DHT22;2391;47.212;7.542;2023-09-18T08:28:59;21.20;96.50
4755;DHT22;2391;47.212;7.542;2023-09-18T08:31:25;21.10;96.60
4755;DHT22;2391;47.212;7.542;2023-09-18T08:33:53;21.00;96.80
4755;DHT22;2391;47.212;7.542;2023-09-18T08:36:18;20.90;96.80
4755;DHT22;2391;47.212;7.542;2023-09-18T08:38:44;20.80;97.10
4755;DHT22;2391;47.212;7.542;2023-09-18T08:41:12;20.70;97.40
4755;DHT22;2391;47.212;7.542;2023-09-18T08:43:41;20.70;97.60
4755;DHT22;2391;47.212;7.542;2023-09-18T08:46:09;20.90;97.60
4755;DHT22;2391;47.212;7.542;2023-09-18T08:48:35;21.00;97.40
4755;DHT22;2391;47.212;7.542;2023-09-18T08:51:03;21.20;97.20
4755;DHT22;2391;47.212;7.542;2023-09-18T08:53:32;21.30;97.10
4755;DHT22;2391;47.212;7.542;2023-09-18T08:55:59;21.30;96.80
4755;DHT22;2391;47.212;7.542;2023-09-18T08:58:33;21.40;96.80
4755;DHT22;2391;47.212;7.542;2023-09-18T09:01:01;21.40;96.60
4755;DHT22;2391;47.212;7.542;2023-09-18T09:03:30;21.40;96.60
4755;DHT22;2391;47.212;7.542;2023-09-18T09:05:56;21.30;96.60
4755;DHT22;2391;47.212;7.542;2023-09-18T09:08:22;21.30;96.70
4755;DHT22;2391;47.212;7.542;2023-09-18T09:10:48;21.30;96.70
4755;DHT22;2391;47.212;7.542;2023-09-18T09:13:14;21.30;96.70
4755;DHT22;2391;47.212;7.542;2023-09-18T09:15:45;21.40;96.70
4755;DHT22;2391;47.212;7.542;2023-09-18T09:18:15;21.40;96.50
4755;DHT22;2391;47.212;7.542;2023-09-18T09:20:55;21.50;96.50
4755;DHT22;2391;47.212;7.542;2023-09-18T09:23:23;21.50;96.50
4755;DHT22;2391;47.212;7.542;2023-09-18T09:25:49;21.50;96.50
4755;DHT22;2391;47.212;7.542;2023-09-18T09:28:15;21.40;96.60
4755;DHT22;2391;47.212;7.542;2023-09-18T09:30:42;21.40;96.80
4755;DHT22;2391;47.212;7.542;2023-09-18T09:33:11;21.40;97.00
4755;DHT22;2391;47.212;7.542;2023-09-18T09:35:38;21.30;96.90
4755;DHT22;2391;47.212;7.542;2023-09-18T09:38:10;21.30;96.90
4755;DHT22;2391;47.212;7.542;2023-09-18T09:40:40;21.20;97.00
4755;DHT22;2391;47.212;7.542;2023-09-18T09:43:08;21.20;97.10
4755;DHT22;2391;47.212;7.542;2023-09-18T09:45:34;21.10;97.20
4755;DHT22;2391;47.212;7.542;2023-09-18T09:48:03;21.20;97.20
4755;DHT22;2391;47.212;7.542;2023-09-18T09:50:33;21.30;97.20
4755;DHT22;2391;47.212;7.542;2023-09-18T09:52:59;21.30;97.10
4755;DHT22;2391;47.212;7.542;2023-09-18T09:57:57;21.30;97.00
4755;DHT22;2391;47.212;7.542;2023-09-18T10:00:38;21.40;97.00
4755;DHT22;2391;47.212;7.542;2023-09-18T10:03:06;21.50;96.80
4755;DHT22;2391;47.212;7.542;2023-09-18T10:05:36;21.50;96.80
4755;DHT22;2391;47.212;7.542;2023-09-18T10:08:14;21.60;96.70
4755;DHT22;2391;47.212;7.542;2023-09-18T10:10:37;21.60;96.50
4755;DHT22;2391;47.212;7.542;2023-09-18T10:13:09;21.60;96.40
4755;DHT22;2391;47.212;7.542;2023-09-18T10:15:37;21.60;96.60
4755;DHT22;2391;47.212;7.542;2023-09-18T10:18:07;21.50;96.80
4755;DHT22;2391;47.212;7.542;2023-09-18T10:20:37;21.50;96.90
4755;DHT22;2391;47.212;7.542;2023-09-18T10:23:03;21.50;97.00
4755;DHT22;2391;47.212;7.542;2023-09-18T10:25:31;21.40;97.00
4755;DHT22;2391;47.212;7.542;2023-09-18T10:27:58;21.40;97.20
4755;DHT22;2391;47.212;7.542;2023-09-18T10:30:26;21.30;97.30
4755;DHT22;2391;47.212;7.542;2023-09-18T10:32:53;21.30;97.40
4755;DHT22;2391;47.212;7.542;2023-09-18T10:35:19;21.30;97.70
4755;DHT22;2391;47.212;7.542;2023-09-18T10:37:48;21.20;98.00
4755;DHT22;2391;47.212;7.542;2023-09-18T10:40:17;21.20;98.10
4755;DHT22;2391;47.212;7.542;2023-09-18T10:42:43;21.30;98.10
4755;DHT22;2391;47.212;7.542;2023-09-18T10:45:11;21.30;98.00
4755;DHT22;2391;47.212;7.542;2023-09-18T10:47:39;21.40;97.80
4755;DHT22;2391;47.212;7.542;2023-09-18T10:50:06;21.40;97.60
4755;DHT22;2391;47.212;7.542;2023-09-18T10:52:42;21.40;97.50
4755;DHT22;2391;47.212;7.542;2023-09-18T10:55:06;21.40;97.60
4755;DHT22;2391;47.212;7.542;2023-09-18T10:57:34;21.40;97.60
4755;DHT22;2391;47.212;7.542;2023-09-18T11:00:03;21.50;97.60
4755;DHT22;2391;47.212;7.542;2023-09-18T11:02:30;21.50;97.60
4755;DHT22;2391;47.212;7.542;2023-09-18T11:04:56;21.60;97.50
4755;DHT22;2391;47.212;7.542;2023-09-18T11:07:23;21.60;97.70
4755;DHT22;2391;47.212;7.542;2023-09-18T11:09:50;21.50;97.70
4755;DHT22;2391;47.212;7.542;2023-09-18T11:12:17;21.50;97.80
4755;DHT22;2391;47.212;7.542;2023-09-18T11:17:36;21.70;97.70
4755;DHT22;2391;47.212;7.542;2023-09-18T11:20:15;21.70;97.60
4755;DHT22;2391;47.212;7.542;2023-09-18T11:22:39;21.80;97.60
4755;DHT22;2391;47.212;7.542;2023-09-18T11:28:02;21.80;97.50
4755;DHT22;2391;47.212;7.542;2023-09-18T11:30:29;21.90;97.40
4755;DHT22;2391;47.212;7.542;2023-09-18T11:32:55;21.80;97.40
4755;DHT22;2391;47.212;7.542;2023-09-18T11:35:21;21.80;97.70
4755;DHT22;2391;47.212;7.542;2023-09-18T11:38:02;21.80;98.20
4755;DHT22;2391;47.212;7.542;2023-09-18T11:40:33;21.80;97.60
4755;DHT22;2391;47.212;7.542;2023-09-18T11:45:56;21.70;97.80
4755;DHT22;2391;47.212;7.542;2023-09-18T11:48:20;21.70;97.50
4755;DHT22;2391;47.212;7.542;2023-09-18T11:50:47;21.50;97.30
4755;DHT22;2391;47.212;7.542;2023-09-18T11:53:14;21.50;97.60
4755;DHT22;2391;47.212;7.542;2023-09-18T11:55:40;21.40;97.50
4755;DHT22;2391;47.212;7.542;2023-09-18T11:58:06;21.30;97.40
4755;DHT22;2391;47.212;7.542;2023-09-18T12:00:34;21.20;97.50
4755;DHT22;2391;47.212;7.542;2023-09-18T12:03:13;21.10;98.00
4755;DHT22;2391;47.212;7.542;2023-09-18T12:05:32;21.10;98.30
4755;DHT22;2391;47.212;7.542;2023-09-18T12:07:59;21.10;98.30
4755;DHT22;2391;47.212;7.542;2023-09-18T12:10:25;21.20;98.10
4755;DHT22;2391;47.212;7.542;2023-09-18T12:12:52;21.20;98.30
4755;DHT22;2391;47.212;7.542;2023-09-18T12:15:18;21.30;98.00
4755;DHT22;2391;47.212;7.542;2023-09-18T12:17:45;21.40;97.70
4755;DHT22;2391;47.212;7.542;2023-09-18T12:20:15;21.40;97.40
4755;DHT22;2391;47.212;7.542;2023-09-18T12:22:48;21.40;97.40
4755;DHT22;2391;47.212;7.542;2023-09-18T12:25:15;21.40;97.00
4755;DHT22;2391;47.212;7.542;2023-09-18T12:27:42;21.40;96.80
4755;DHT22;2391;47.212;7.542;2023-09-18T12:30:09;21.30;97.10
4755;DHT22;2391;47.212;7.542;2023-09-18T12:32:39;21.30;96.90
4755;DHT22;2391;47.212;7.542;2023-09-18T12:35:08;21.20;97.60
4755;DHT22;2391;47.212;7.542;2023-09-18T12:37:44;21.20;97.90
4755;DHT22;2391;47.212;7.542;2023-09-18T12:40:03;21.30;98.00
4755;DHT22;2391;47.212;7.542;2023-09-18T12:42:31;21.40;98.00
4755;DHT22;2391;47.212;7.542;2023-09-18T12:44:57;21.50;98.00
4755;DHT22;2391;47.212;7.542;2023-09-18T12:47:23;21.50;97.30
4755;DHT22;2391;47.212;7.542;2023-09-18T12:49:51;21.60;97.30
4755;DHT22;2391;47.212;7.542;2023-09-18T12:52:21;21.50;97.40
4755;DHT22;2391;47.212;7.542;2023-09-18T12:54:46;21.40;97.30
4755;DHT22;2391;47.212;7.542;2023-09-18T12:57:16;21.30;97.70
4755;DHT22;2391;47.212;7.542;2023-09-18T12:59:41;21.20;97.90
4755;DHT22;2391;47.212;7.542;2023-09-18T13:02:07;21.20;97.70
4755;DHT22;2391;47.212;7.542;2023-09-18T13:04:35;21.20;97.50
4755;DHT22;2391;47.212;7.542;2023-09-18T13:07:10;21.10;97.70
4755;DHT22;2391;47.212;7.542;2023-09-18T13:09:37;21.10;97.80
4755;DHT22;2391;47.212;7.542;2023-09-18T13:12:04;21.00;98.10
4755;DHT22;2391;47.212;7.542;2023-09-18T13:17:17;21.00;98.40
4755;DHT22;2391;47.212;7.542;2023-09-18T13:19:43;21.00;98.20
4755;DHT22;2391;47.212;7.542;2023-09-18T13:22:08;21.00;98.00
4755;DHT22;2391;47.212;7.542;2023-09-18T13:24:34;21.00;97.80
4755;DHT22;2391;47.212;7.542;2023-09-18T13:27:00;20.90;97.90
4755;DHT22;2391;47.212;7.542;2023-09-18T13:29:26;20.90;97.80
4755;DHT22;2391;47.212;7.542;2023-09-18T13:31:52;20.90;98.30
4755;DHT22;2391;47.212;7.542;2023-09-18T13:34:17;20.90;98.10
4755;DHT22;2391;47.212;7.542;2023-09-18T13:36:45;20.90;97.90
4755;DHT22;2391;47.212;7.542;2023-09-18T13:39:12;20.90;98.00
4755;DHT22;2391;47.212;7.542;2023-09-18T13:41:39;20.90;98.40
4755;DHT22;2391;47.212;7.542;2023-09-18T13:44:07;20.90;98.00
4755;DHT22;2391;47.212;7.542;2023-09-18T13:46:33;20.90;98.10
4755;DHT22;2391;47.212;7.542;2023-09-18T13:49:00;20.90;98.20
4755;DHT22;2391;47.212;7.542;2023-09-18T13:51:26;21.00;97.80
4755;DHT22;2391;47.212;7.542;2023-09-18T13:53:52;20.90;97.60
4755;DHT22;2391;47.212;7.542;2023-09-18T13:56:18;20.90;97.70
4755;DHT22;2391;47.212;7.542;2023-09-18T13:58:45;21.00;98.00
4755;DHT22;2391;47.212;7.542;2023-09-18T14:01:11;21.00;97.80
4755;DHT22;2391;47.212;7.542;2023-09-18T14:03:37;21.10;97.90
4755;DHT22;2391;47.212;7.542;2023-09-18T14:06:03;21.10;97.50
4755;DHT22;2391;47.212;7.542;2023-09-18T14:08:31;21.20;97.40
4755;DHT22;2391;47.212;7.542;2023-09-18T14:10:56;21.10;97.10
4755;DHT22;2391;47.212;7.542;2023-09-18T14:13:22;21.10;97.20
4755;DHT22;2391;47.212;7.542;2023-09-18T14:15:48;21.10;97.40
4755;DHT22;2391;47.212;7.542;2023-09-18T14:18:14;21.10;97.60
4755;DHT22;2391;47.212;7.542;2023-09-18T14:20:40;21.00;97.50
4755;DHT22;2391;47.212;7.542;2023-09-18T14:23:09;21.00;97.40
4755;DHT22;2391;47.212;7.542;2023-09-18T14:25:35;21.00;97.40
4755;DHT22;2391;47.212;7.542;2023-09-18T14:28:02;21.00;97.30
4755;DHT22;2391;47.212;7.542;2023-09-18T14:30:28;21.10;97.40
4755;DHT22;2391;47.212;7.542;2023-09-18T14:32:55;21.10;97.30
4755;DHT22;2391;47.212;7.542;2023-09-18T14:35:21;21.10;97.40
4755;DHT22;2391;47.212;7.542;2023-09-18T14:37:48;21.20;97.50
4755;DHT22;2391;47.212;7.542;2023-09-18T14:40:14;21.20;97.40
4755;DHT22;2391;47.212;7.542;2023-09-18T14:42:40;21.20;97.40
4755;DHT22;2391;47.212;7.542;2023-09-18T14:45:06;21.30;97.20
4755;DHT22;2391;47.212;7.542;2023-09-18T14:47:32;21.30;97.10
4755;DHT22;2391;47.212;7.542;2023-09-18T14:49:59;21.30;97.10
4755;DHT22;2391;47.212;7.542;2023-09-18T14:52:26;21.20;97.10
4755;DHT22;2391;47.212;7.542;2023-09-18T14:54:52;21.20;97.30
4755;DHT22;2391;47.212;7.542;2023-09-18T14:57:18;21.30;97.40
4755;DHT22;2391;47.212;7.542;2023-09-18T14:59:44;21.40;97.50
4755;DHT22;2391;47.212;7.542;2023-09-18T15:02:11;21.50;97.30
4755;DHT22;2391;47.212;7.542;2023-09-18T15:04:38;21.50;97.10
4755;DHT22;2391;47.212;7.542;2023-09-18T15:07:03;21.50;96.90
4755;DHT22;2391;47.212;7.542;2023-09-18T15:09:29;21.50;97.00
4755;DHT22;2391;47.212;7.542;2023-09-18T15:11:55;21.50;97.10
4755;DHT22;2391;47.212;7.542;2023-09-18T15:14:20;21.50;96.80
4755;DHT22;2391;47.212;7.542;2023-09-18T15:16:46;21.50;96.70
4755;DHT22;2391;47.212;7.542;2023-09-18T15:19:12;21.40;96.80
4755;DHT22;2391;47.212;7.542;2023-09-18T15:21:40;21.30;96.90
4755;DHT22;2391;47.212;7.542;2023-09-18T15:24:07;21.20;97.10
4755;DHT22;2391;47.212;7.542;2023-09-18T15:26:33;21.20;97.30
4755;DHT22;2391;47.212;7.542;2023-09-18T15:28:58;21.10;97.30
4755;DHT22;2391;47.212;7.542;2023-09-18T15:31:25;21.10;97.50
4755;DHT22;2391;47.212;7.542;2023-09-18T15:33:51;21.10;97.60
4755;DHT22;2391;47.212;7.542;2023-09-18T15:36:19;21.10;97.60
4755;DHT22;2391;47.212;7.542;2023-09-18T15:38:44;21.10;97.50
4755;DHT22;2391;47.212;7.542;2023-09-18T15:41:10;21.10;97.70
4755;DHT22;2391;47.212;7.542;2023-09-18T15:43:36;21.10;97.90
4755;DHT22;2391;47.212;7.542;2023-09-18T15:46:02;21.10;97.90
4755;DHT22;2391;47.212;7.542;2023-09-18T15:48:28;21.20;97.90
4755;DHT22;2391;47.212;7.542;2023-09-18T15:50:53;21.20;97.70
4755;DHT22;2391;47.212;7.542;2023-09-18T15:53:19;21.30;97.60
4755;DHT22;2391;47.212;7.542;2023-09-18T15:55:45;21.30;97.50
4755;DHT22;2391;47.212;7.542;2023-09-18T15:58:11;21.30;97.70
4755;DHT22;2391;47.212;7.542;2023-09-18T16:00:37;21.40;98.00
4755;DHT22;2391;47.212;7.542;2023-09-18T16:03:04;21.40;97.90
4755;DHT22;2391;47.212;7.542;2023-09-18T16:05:30;21.50;97.50
4755;DHT22;2391;47.212;7.542;2023-09-18T16:07:55;21.50;97.50
4755;DHT22;2391;47.212;7.542;2023-09-18T16:10:23;21.50;97.30
4755;DHT22;2391;47.212;7.542;2023-09-18T16:12:49;21.50;97.30
4755;DHT22;2391;47.212;7.542;2023-09-18T16:15:15;21.50;97.20
4755;DHT22;2391;47.212;7.542;2023-09-18T16:17:41;21.50;97.00